Time;durP1;ratioP1;P1;durP2;ratioP2;P2;SDS_P1;SDS_P2;PMS_P1;PMS_P2;Temp;Humidity;BMP_temperature;BMP_pressure;BME280_temperature;BME280_humidity;BME280_pressure;Samples;Min_cycle;Max_cycle;Signal;HPM_P1;HPM_P2
2022/02/28 00:00:52;;;;;;;11.27;7.47;;;3.50;99.90;;;;;;5013932;28;21025;-64
2022/02/28 00:03:21;;;;;;;10.53;7.27;;;3.50;99.90;;;;;;5013911;28;20476;-65
2022/02/28 00:05:49;;;;;;;11.47;7.70;;;3.50;99.90;;;;;;5013448;28;20541;-64
2022/02/28 00:08:17;;;;;;;9.93;6.70;;;3.50;99.90;;;;;;5009685;28;20487;-65
2022/02/28 00:10:45;;;;;;;8.57;6.37;;;3.50;99.90;;;;;;4999056;28;21029;-65
2022/02/28 00:13:15;;;;;;;9.77;7.30;;;3.60;99.90;;;;;;5013495;28;20577;-65
2022/02/28 00:15:43;;;;;;;12.07;7.73;;;3.50;99.90;;;;;;5013577;28;20483;-65
2022/02/28 00:18:11;;;;;;;12.13;7.40;;;3.40;99.90;;;;;;5012659;28;20483;-65
2022/02/28 00:20:39;;;;;;;11.17;7.10;;;3.40;99.90;;;;;;5013402;28;20472;-64
2022/02/28 00:23:09;;;;;;;13.63;7.77;;;3.40;99.90;;;;;;5013276;28;20471;-64
2022/02/28 00:25:37;;;;;;;13.60;7.73;;;3.40;99.90;;;;;;4994073;28;20469;-65
2022/02/28 00:28:07;;;;;;;10.37;7.27;;;3.40;99.90;;;;;;5019993;28;20481;-65
2022/02/28 00:30:38;;;;;;;11.30;7.67;;;3.40;99.90;;;;;;5031760;28;20836;-65
2022/02/28 00:33:08;;;;;;;13.77;9.10;;;3.40;99.90;;;;;;5017613;28;20478;-65
2022/02/28 00:35:36;;;;;;;12.27;7.93;;;3.30;99.90;;;;;;5010327;28;20481;-64
2022/02/28 00:38:05;;;;;;;12.10;7.63;;;3.30;99.90;;;;;;5015905;28;20569;-65
2022/02/28 00:40:33;;;;;;;12.17;8.17;;;3.30;99.90;;;;;;5033171;28;21043;-65
2022/02/28 00:43:02;;;;;;;11.60;7.57;;;3.30;99.90;;;;;;5017261;28;20490;-65
2022/02/28 00:45:30;;;;;;;12.30;7.87;;;3.30;99.90;;;;;;5012969;28;20476;-64
2022/02/28 00:47:59;;;;;;;12.67;8.43;;;3.20;99.90;;;;;;5023012;28;20500;-64
2022/02/28 00:50:27;;;;;;;12.67;8.27;;;3.20;99.90;;;;;;5031269;28;20467;-65
2022/02/28 00:52:55;;;;;;;15.20;8.00;;;3.20;99.90;;;;;;5018831;28;20549;-65
2022/02/28 00:55:24;;;;;;;13.20;8.73;;;3.20;99.90;;;;;;5013113;28;20871;-65
2022/02/28 00:57:52;;;;;;;14.10;8.63;;;3.10;99.90;;;;;;5008151;28;20515;-65
2022/02/28 01:00:21;;;;;;;11.77;7.87;;;3.10;99.90;;;;;;5028005;28;20481;-65
2022/02/28 01:02:52;;;;;;;12.03;7.93;;;3.20;99.90;;;;;;5019136;28;20496;-64
2022/02/28 01:05:22;;;;;;;13.30;8.30;;;3.20;99.90;;;;;;5012848;28;20891;-65
2022/02/28 01:07:50;;;;;;;12.33;8.33;;;3.20;99.90;;;;;;5012522;28;20851;-65
2022/02/28 01:10:21;;;;;;;13.87;8.57;;;3.10;99.90;;;;;;5013009;28;20473;-65
2022/02/28 01:12:49;;;;;;;12.53;8.20;;;3.10;99.90;;;;;;5010364;28;20492;-64
2022/02/28 01:15:19;;;;;;;12.10;7.60;;;3.10;99.90;;;;;;5011280;28;20845;-65
2022/02/28 01:17:50;;;;;;;14.43;8.50;;;3.10;99.90;;;;;;5012296;28;20471;-65
2022/02/28 01:20:19;;;;;;;12.87;8.20;;;3.10;99.90;;;;;;5012694;28;20500;-65
2022/02/28 01:22:51;;;;;;;13.23;8.70;;;3.10;99.90;;;;;;5012244;28;20542;-65
2022/02/28 01:25:19;;;;;;;11.67;8.57;;;3.10;99.90;;;;;;5012620;28;20510;-65
2022/02/28 01:27:48;;;;;;;12.73;8.40;;;3.10;99.90;;;;;;5016472;28;20867;-65
2022/02/28 01:30:17;;;;;;;13.27;8.20;;;3.10;99.90;;;;;;5015029;28;20986;-65
2022/02/28 01:32:45;;;;;;;14.17;8.57;;;3.10;99.90;;;;;;5011967;28;20843;-64
2022/02/28 01:35:14;;;;;;;11.07;7.97;;;3.10;99.90;;;;;;5011662;28;20489;-65
2022/02/28 01:37:42;;;;;;;13.57;8.83;;;3.10;99.90;;;;;;5011962;28;20834;-65
2022/02/28 01:40:15;;;;;;;11.67;8.13;;;3.10;99.90;;;;;;5010742;28;20525;-65
2022/02/28 01:42:44;;;;;;;14.07;9.17;;;3.00;99.90;;;;;;5011788;28;20573;-64
2022/02/28 01:45:14;;;;;;;14.33;8.17;;;3.00;99.90;;;;;;5011429;28;20566;-65
2022/02/28 01:47:43;;;;;;;13.40;8.83;;;2.90;99.90;;;;;;5009962;28;20487;-65
2022/02/28 01:50:11;;;;;;;15.87;9.50;;;2.90;99.90;;;;;;5010620;28;20995;-65
2022/02/28 01:52:41;;;;;;;14.80;8.80;;;2.90;99.90;;;;;;5010302;28;20508;-65
2022/02/28 01:55:10;;;;;;;12.43;8.70;;;2.90;99.90;;;;;;5011822;28;20575;-64
2022/02/28 01:57:41;;;;;;;13.53;9.03;;;2.90;99.90;;;;;;5011323;28;20469;-64
2022/02/28 02:00:13;;;;;;;12.00;8.63;;;2.90;99.90;;;;;;5016016;28;20483;-65
2022/02/28 02:02:42;;;;;;;11.20;8.17;;;2.80;99.90;;;;;;5002436;28;20476;-65
2022/02/28 02:05:11;;;;;;;12.87;8.37;;;2.80;99.90;;;;;;5010339;28;20478;-64
2022/02/28 02:07:40;;;;;;;14.97;9.80;;;2.80;99.90;;;;;;5009716;28;20475;-65
2022/02/28 02:10:10;;;;;;;13.70;8.87;;;2.90;99.90;;;;;;5010189;28;20560;-65
2022/02/28 02:12:40;;;;;;;13.60;9.50;;;2.90;99.90;;;;;;5011325;28;20488;-65
2022/02/28 02:15:11;;;;;;;14.03;9.27;;;2.80;99.90;;;;;;4999506;28;20574;-65
2022/02/28 02:17:41;;;;;;;12.67;8.67;;;2.80;99.90;;;;;;5002020;28;20569;-65
2022/02/28 02:20:12;;;;;;;14.17;8.63;;;2.90;99.90;;;;;;5011595;28;20558;-65
2022/02/28 02:22:55;;;;;;;15.23;8.03;;;2.80;99.90;;;;;;5009579;28;20479;-65
2022/02/28 02:25:24;;;;;;;13.67;9.23;;;2.80;99.90;;;;;;5011527;28;20484;-65
2022/02/28 02:27:52;;;;;;;15.23;9.23;;;2.70;99.90;;;;;;5009642;28;20581;-64
2022/02/28 02:30:21;;;;;;;11.10;7.83;;;2.80;99.90;;;;;;5010479;28;20465;-64
2022/02/28 02:32:51;;;;;;;12.33;8.80;;;3.00;99.90;;;;;;5015965;28;20561;-65
2022/02/28 02:35:20;;;;;;;11.83;8.90;;;3.10;99.90;;;;;;5002255;28;21016;-65
2022/02/28 02:37:48;;;;;;;14.13;9.03;;;3.10;99.90;;;;;;5002994;28;20469;-65
2022/02/28 02:40:18;;;;;;;15.63;9.80;;;3.00;99.90;;;;;;5010873;28;20556;-65
2022/02/28 02:42:46;;;;;;;10.93;8.20;;;2.90;99.90;;;;;;5009777;28;20535;-65
2022/02/28 02:45:15;;;;;;;14.17;9.97;;;2.90;99.90;;;;;;5009830;28;20482;-64
2022/02/28 02:47:44;;;;;;;13.90;9.53;;;2.80;99.90;;;;;;5005707;28;21044;-65
2022/02/28 02:50:17;;;;;;;15.00;10.00;;;2.70;99.90;;;;;;4989951;28;20473;-64
2022/02/28 02:52:47;;;;;;;12.87;9.00;;;2.70;99.90;;;;;;5002412;28;20492;-66
2022/02/28 02:55:19;;;;;;;14.27;10.27;;;2.60;99.90;;;;;;5011116;28;20567;-64
2022/02/28 02:57:47;;;;;;;15.23;9.50;;;2.70;99.90;;;;;;5010602;28;20544;-65
2022/02/28 03:00:16;;;;;;;13.13;9.23;;;2.70;99.90;;;;;;5009640;28;20580;-64
2022/02/28 03:03:05;;;;;;;14.03;9.73;;;2.60;99.90;;;;;;5028466;28;20480;-64
2022/02/28 03:05:34;;;;;;;14.90;9.47;;;2.50;99.90;;;;;;5028881;28;20482;-64
2022/02/28 03:08:04;;;;;;;15.77;9.73;;;2.50;99.90;;;;;;5040120;28;20472;-65
2022/02/28 03:10:33;;;;;;;13.90;9.73;;;2.40;99.90;;;;;;5049153;28;20470;-65
2022/02/28 03:13:02;;;;;;;17.73;10.03;;;2.50;99.90;;;;;;5033997;28;20480;-64
2022/02/28 03:15:30;;;;;;;14.57;10.27;;;2.50;99.90;;;;;;5029119;28;20463;-65
2022/02/28 03:18:00;;;;;;;14.63;9.73;;;2.50;99.90;;;;;;5012644;28;20551;-64
2022/02/28 03:20:28;;;;;;;16.30;10.40;;;2.50;99.90;;;;;;5010701;28;20553;-65
2022/02/28 03:22:57;;;;;;;14.90;10.07;;;2.50;99.90;;;;;;5010554;28;20543;-65
2022/02/28 03:25:28;;;;;;;16.73;10.30;;;2.50;99.90;;;;;;5009300;28;20477;-65
2022/02/28 03:28:01;;;;;;;15.53;10.17;;;2.40;99.90;;;;;;5039282;28;20469;-65
2022/02/28 03:30:30;;;;;;;15.73;9.87;;;2.40;99.90;;;;;;5048666;28;20840;-65
2022/02/28 03:32:58;;;;;;;12.20;9.30;;;2.40;99.90;;;;;;5034074;28;20484;-65
2022/02/28 03:35:30;;;;;;;14.50;9.23;;;2.40;99.90;;;;;;5010534;28;20562;-65
2022/02/28 03:37:59;;;;;;;14.63;10.10;;;2.40;99.90;;;;;;5009183;28;20497;-65
2022/02/28 03:40:29;;;;;;;16.07;10.67;;;2.40;99.90;;;;;;5009042;28;20547;-64
2022/02/28 03:43:00;;;;;;;13.13;9.27;;;2.50;99.90;;;;;;5010417;28;20497;-65
2022/02/28 03:45:39;;;;;;;16.47;10.47;;;2.50;99.90;;;;;;5028432;28;20471;-64
2022/02/28 03:48:07;;;;;;;16.47;9.93;;;2.50;99.90;;;;;;5022087;28;20480;-64
2022/02/28 03:51:04;;;;;;;14.07;9.80;;;2.40;99.90;;;;;;4990869;28;20485;-65
2022/02/28 03:53:34;;;;;;;15.80;9.60;;;2.40;99.90;;;;;;5011063;28;20485;-64
2022/02/28 03:56:06;;;;;;;13.00;9.07;;;2.50;99.90;;;;;;5013224;28;20528;-65
2022/02/28 03:58:38;;;;;;;16.13;10.13;;;2.50;99.90;;;;;;5032153;28;20479;-64
2022/02/28 04:01:08;;;;;;;15.93;10.20;;;2.40;99.90;;;;;;5014458;28;20530;-65
2022/02/28 04:03:40;;;;;;;15.27;10.37;;;2.40;99.90;;;;;;5012419;28;20556;-64
2022/02/28 04:06:09;;;;;;;14.53;10.07;;;2.40;99.90;;;;;;5012326;28;20572;-64
2022/02/28 04:08:39;;;;;;;15.00;10.20;;;2.40;99.90;;;;;;5027971;28;20482;-65
2022/02/28 04:11:09;;;;;;;13.50;8.87;;;2.40;99.90;;;;;;5033552;28;20989;-65
2022/02/28 04:13:40;;;;;;;14.93;10.33;;;2.40;99.90;;;;;;5012432;28;20474;-65
2022/02/28 04:16:11;;;;;;;16.50;10.00;;;2.40;99.90;;;;;;5011877;28;20476;-65
2022/02/28 04:18:57;;;;;;;13.97;10.03;;;2.40;99.90;;;;;;5012386;28;21047;-65
2022/02/28 04:21:38;;;;;;;14.17;10.23;;;2.40;99.90;;;;;;5031381;28;20479;-63
2022/02/28 04:24:07;;;;;;;16.37;11.20;;;2.50;99.90;;;;;;5015227;28;20538;-65
2022/02/28 04:26:36;;;;;;;15.37;9.90;;;2.40;99.90;;;;;;5011538;28;20564;-65
2022/02/28 04:29:05;;;;;;;16.73;10.77;;;2.30;99.90;;;;;;5015670;28;20500;-64
2022/02/28 04:31:34;;;;;;;15.27;10.23;;;2.30;99.90;;;;;;5012118;28;20480;-63
2022/02/28 04:34:03;;;;;;;14.13;10.23;;;2.30;99.90;;;;;;5012588;28;20506;-65
2022/02/28 04:36:31;;;;;;;15.90;10.20;;;2.30;99.90;;;;;;5012042;28;20549;-63
2022/02/28 04:38:59;;;;;;;14.17;9.90;;;2.30;99.90;;;;;;5012131;28;20489;-64
2022/02/28 04:41:28;;;;;;;12.83;9.20;;;2.20;99.90;;;;;;5012422;28;20536;-64
2022/02/28 04:43:57;;;;;;;16.83;11.33;;;2.20;99.90;;;;;;5011880;28;20476;-64
2022/02/28 04:46:27;;;;;;;14.80;10.37;;;2.20;99.90;;;;;;5011498;28;20996;-65
2022/02/28 04:49:01;;;;;;;15.33;10.90;;;2.20;99.90;;;;;;5050433;28;20987;-65
2022/02/28 04:51:38;;;;;;;15.40;10.67;;;2.20;99.90;;;;;;5029192;28;20523;-65
2022/02/28 04:54:10;;;;;;;14.57;10.50;;;2.10;99.90;;;;;;5011377;28;20491;-64
2022/02/28 04:56:39;;;;;;;16.57;11.00;;;2.10;99.90;;;;;;5003162;28;20479;-63
2022/02/28 04:59:08;;;;;;;15.57;11.13;;;2.10;99.90;;;;;;5013104;28;20472;-64
2022/02/28 05:01:40;;;;;;;17.50;11.90;;;2.10;99.90;;;;;;5012700;28;20542;-65
2022/02/28 05:04:31;;;;;;;17.63;11.27;;;2.10;99.90;;;;;;5040368;28;20876;-64
2022/02/28 05:07:00;;;;;;;17.13;10.60;;;2.10;99.90;;;;;;5033337;28;20528;-65
2022/02/28 05:09:28;;;;;;;14.67;10.43;;;2.10;99.90;;;;;;5017516;28;20474;-65
2022/02/28 05:11:57;;;;;;;15.70;10.63;;;2.10;99.90;;;;;;5011230;28;20491;-65
2022/02/28 05:14:27;;;;;;;17.40;10.83;;;2.00;99.90;;;;;;5011277;28;20486;-65
2022/02/28 05:16:55;;;;;;;17.83;11.23;;;2.00;99.90;;;;;;5011376;28;20547;-65
2022/02/28 05:19:25;;;;;;;17.43;10.97;;;2.00;99.90;;;;;;5012560;28;20958;-65
2022/02/28 05:21:54;;;;;;;14.93;10.70;;;2.00;99.90;;;;;;5010989;28;20465;-64
2022/02/28 05:24:23;;;;;;;19.00;11.83;;;2.00;99.90;;;;;;5010584;28;20484;-65
2022/02/28 05:26:52;;;;;;;17.80;11.07;;;1.90;99.90;;;;;;5011732;28;20480;-65
2022/02/28 05:29:20;;;;;;;16.43;10.83;;;1.90;99.90;;;;;;5021873;28;20575;-65
2022/02/28 05:31:49;;;;;;;16.73;12.10;;;1.90;99.90;;;;;;5027237;28;20485;-65
2022/02/28 05:34:43;;;;;;;16.50;10.27;;;1.90;99.90;;;;;;5031772;28;20473;-65
2022/02/28 05:37:13;;;;;;;18.67;12.17;;;1.90;99.90;;;;;;5030606;28;20525;-65
2022/02/28 05:40:09;;;;;;;17.20;11.63;;;1.90;99.90;;;;;;5012583;28;20872;-65
2022/02/28 05:42:38;;;;;;;17.30;11.70;;;1.90;99.90;;;;;;5021730;28;20881;-65
2022/02/28 05:45:09;;;;;;;16.20;10.97;;;1.90;99.90;;;;;;5013662;28;20491;-63
2022/02/28 05:47:46;;;;;;;16.20;11.17;;;1.90;99.90;;;;;;5013326;28;21020;-65
2022/02/28 05:50:14;;;;;;;18.30;11.93;;;1.90;99.90;;;;;;5010407;28;20481;-65
2022/02/28 05:52:45;;;;;;;16.80;11.30;;;1.90;99.90;;;;;;5004492;28;20569;-65
2022/02/28 05:55:14;;;;;;;21.53;12.53;;;1.90;99.90;;;;;;5011547;28;20473;-64
2022/02/28 05:57:48;;;;;;;18.70;12.63;;;1.90;99.90;;;;;;5011457;28;20487;-65
2022/02/28 06:00:17;;;;;;;18.23;12.10;;;1.90;99.90;;;;;;5011869;28;20471;-65
2022/02/28 06:02:48;;;;;;;21.00;14.13;;;1.90;99.90;;;;;;5005172;28;20884;-65
2022/02/28 06:05:16;;;;;;;19.60;14.57;;;1.80;99.90;;;;;;5011536;28;20480;-64
2022/02/28 06:07:44;;;;;;;18.30;13.63;;;1.80;99.90;;;;;;5017750;28;20473;-64
2022/02/28 06:10:15;;;;;;;17.67;13.10;;;1.80;99.90;;;;;;5016695;28;20485;-65
2022/02/28 06:12:44;;;;;;;21.40;13.63;;;1.80;99.90;;;;;;5021984;28;21121;-65
2022/02/28 06:15:32;;;;;;;21.10;14.00;;;1.80;99.90;;;;;;5011151;28;20559;-65
2022/02/28 06:18:02;;;;;;;19.20;13.03;;;1.80;99.90;;;;;;5025765;28;20475;-65
2022/02/28 06:20:30;;;;;;;23.40;13.87;;;1.80;99.90;;;;;;5013498;28;20502;-64
2022/02/28 06:22:58;;;;;;;18.23;11.63;;;1.70;99.90;;;;;;5015735;28;20472;-64
2022/02/28 06:25:26;;;;;;;19.50;12.10;;;1.80;99.90;;;;;;5010342;28;20911;-64
2022/02/28 06:27:55;;;;;;;17.57;12.27;;;1.80;99.90;;;;;;5015381;28;20449;-65
2022/02/28 06:30:23;;;;;;;17.07;12.30;;;1.80;99.90;;;;;;5011203;28;20545;-64
2022/02/28 06:32:52;;;;;;;19.23;12.70;;;1.70;99.90;;;;;;5008015;28;20472;-64
2022/02/28 06:35:22;;;;;;;18.73;12.50;;;1.70;99.90;;;;;;5008990;28;20596;-64
2022/02/28 06:37:50;;;;;;;18.73;12.27;;;1.70;99.90;;;;;;5016092;28;20989;-64
2022/02/28 06:40:18;;;;;;;16.77;12.50;;;1.70;99.90;;;;;;5021691;28;20779;-64
2022/02/28 06:42:46;;;;;;;19.93;12.90;;;1.80;99.90;;;;;;5014407;28;20511;-64
2022/02/28 06:45:17;;;;;;;20.03;12.97;;;1.80;99.90;;;;;;5010259;28;20827;-64
2022/02/28 06:47:45;;;;;;;21.03;12.73;;;1.80;99.90;;;;;;5017740;28;20472;-64
2022/02/28 06:50:13;;;;;;;22.17;13.20;;;1.80;99.90;;;;;;5010192;28;20838;-64
2022/02/28 06:52:43;;;;;;;18.53;12.37;;;1.90;99.90;;;;;;5006240;28;20870;-63
2022/02/28 06:55:11;;;;;;;19.23;12.57;;;1.90;99.90;;;;;;5021627;28;20476;-64
2022/02/28 06:57:39;;;;;;;17.37;11.97;;;2.00;99.90;;;;;;5009638;28;20494;-64
2022/02/28 07:00:08;;;;;;;19.83;12.10;;;2.10;99.90;;;;;;5018663;28;20567;-64
2022/02/28 07:02:53;;;;;;;22.00;12.87;;;2.10;99.90;;;;;;5017885;28;21340;-64
2022/02/28 07:05:22;;;;;;;17.77;11.97;;;2.20;99.90;;;;;;5013348;28;20888;-64
2022/02/28 07:07:51;;;;;;;18.33;12.47;;;2.30;99.90;;;;;;5010672;28;20573;-64
2022/02/28 07:10:21;;;;;;;19.37;12.87;;;2.30;99.90;;;;;;5018354;28;20535;-64
2022/02/28 07:12:49;;;;;;;20.50;12.97;;;2.40;99.90;;;;;;5008531;28;20474;-64
2022/02/28 07:15:17;;;;;;;18.03;12.10;;;2.50;99.90;;;;;;5013777;28;20571;-64
2022/02/28 07:17:46;;;;;;;18.23;13.23;;;2.50;99.90;;;;;;5015103;28;20980;-64
2022/02/28 07:20:14;;;;;;;19.57;12.47;;;2.60;99.90;;;;;;5014020;28;20470;-64
2022/02/28 07:22:42;;;;;;;19.90;12.77;;;2.70;99.90;;;;;;5014704;28;21018;-64
2022/02/28 07:25:11;;;;;;;20.80;12.77;;;2.80;99.90;;;;;;5014769;28;20507;-64
2022/02/28 07:27:39;;;;;;;20.67;13.23;;;2.80;99.90;;;;;;5012908;28;20473;-64
2022/02/28 07:30:09;;;;;;;18.57;13.37;;;3.10;99.90;;;;;;5022521;28;20577;-64
2022/02/28 07:32:37;;;;;;;17.33;12.70;;;3.10;99.90;;;;;;5017665;28;20464;-64
2022/02/28 07:35:06;;;;;;;16.97;13.00;;;3.30;99.90;;;;;;5019091;28;20470;-64
2022/02/28 07:37:35;;;;;;;18.87;12.23;;;3.40;99.90;;;;;;5014122;28;20473;-63
2022/02/28 07:40:03;;;;;;;18.30;12.77;;;3.50;99.90;;;;;;5019609;28;20475;-64
2022/02/28 07:42:33;;;;;;;20.13;12.37;;;3.60;99.90;;;;;;5009946;28;20475;-64
2022/02/28 07:45:02;;;;;;;19.53;13.27;;;3.70;99.90;;;;;;5018888;28;20559;-64
2022/02/28 07:47:30;;;;;;;20.57;13.73;;;3.80;99.90;;;;;;5031530;28;20477;-64
2022/02/28 07:49:58;;;;;;;19.83;13.07;;;3.90;99.90;;;;;;5020490;28;20513;-64
2022/02/28 07:52:26;;;;;;;20.03;13.70;;;4.10;99.90;;;;;;5015850;28;20470;-63
2022/02/28 07:54:54;;;;;;;19.10;13.17;;;4.20;99.90;;;;;;5025584;28;21010;-64
2022/02/28 07:57:22;;;;;;;18.67;12.60;;;4.20;99.90;;;;;;5025604;28;20498;-64
2022/02/28 07:59:52;;;;;;;17.53;12.20;;;4.30;99.90;;;;;;5025656;28;20502;-64
2022/02/28 08:02:21;;;;;;;19.27;12.70;;;4.30;99.90;;;;;;5029189;28;20481;-64
2022/02/28 08:04:50;;;;;;;18.73;13.60;;;4.50;99.90;;;;;;5025147;28;20500;-64
2022/02/28 08:07:18;;;;;;;18.30;13.00;;;4.70;99.90;;;;;;5025450;28;20486;-64
2022/02/28 08:09:46;;;;;;;15.43;12.33;;;4.70;99.90;;;;;;5025335;28;20566;-63
2022/02/28 08:12:14;;;;;;;18.73;13.10;;;4.90;99.90;;;;;;5021768;28;20941;-63
2022/02/28 08:14:43;;;;;;;17.90;12.73;;;5.00;99.90;;;;;;5013591;28;20489;-64
2022/02/28 08:17:12;;;;;;;18.17;13.40;;;5.10;99.90;;;;;;5013525;28;20479;-64
2022/02/28 08:19:40;;;;;;;16.47;12.67;;;5.20;99.90;;;;;;5014109;28;20468;-63
2022/02/28 08:22:08;;;;;;;18.87;13.17;;;5.30;99.90;;;;;;5015239;28;20564;-63
2022/02/28 08:24:36;;;;;;;17.47;12.43;;;5.50;99.90;;;;;;5024960;28;20819;-63
2022/02/28 08:27:05;;;;;;;18.30;12.70;;;5.60;99.90;;;;;;5029224;28;20669;-63
2022/02/28 08:29:33;;;;;;;16.90;12.30;;;5.60;99.90;;;;;;5025212;28;20563;-63
2022/02/28 08:32:01;;;;;;;17.43;12.70;;;5.80;99.90;;;;;;5028652;28;21043;-63
2022/02/28 08:34:31;;;;;;;18.07;12.70;;;6.00;99.90;;;;;;5024667;28;20468;-63
2022/02/28 08:36:59;;;;;;;16.90;12.47;;;6.10;99.90;;;;;;5027278;28;20594;-63
2022/02/28 08:39:27;;;;;;;20.80;15.20;;;6.20;99.90;;;;;;5022403;28;20471;-63
2022/02/28 08:41:55;;;;;;;19.10;12.93;;;6.30;99.90;;;;;;5027438;28;20249;-63
2022/02/28 08:44:23;;;;;;;18.30;13.63;;;6.40;99.90;;;;;;5021845;28;20237;-63
2022/02/28 08:46:51;;;;;;;17.53;14.03;;;6.50;99.90;;;;;;5014048;28;20241;-63
2022/02/28 08:49:20;;;;;;;17.07;13.27;;;6.70;99.90;;;;;;5011721;28;20271;-63
2022/02/28 08:51:51;;;;;;;19.10;13.50;;;6.80;99.90;;;;;;5013016;28;20241;-63
2022/02/28 08:54:19;;;;;;;21.33;14.33;;;6.80;99.90;;;;;;5023713;28;20237;-63
2022/02/28 08:56:47;;;;;;;18.27;13.70;;;6.90;99.90;;;;;;5028060;28;20248;-63
2022/02/28 08:59:15;;;;;;;18.57;13.80;;;7.00;99.90;;;;;;5021358;28;20241;-63
2022/02/28 09:01:43;;;;;;;20.10;14.37;;;7.00;99.90;;;;;;5028694;28;20598;-63
2022/02/28 09:04:12;;;;;;;17.83;13.37;;;7.10;99.90;;;;;;5024248;28;20247;-63
2022/02/28 09:06:40;;;;;;;17.33;13.30;;;7.30;99.90;;;;;;5029047;28;20240;-63
2022/02/28 09:09:09;;;;;;;17.77;12.97;;;7.50;99.90;;;;;;5024640;28;20638;-63
2022/02/28 09:11:37;;;;;;;19.27;14.20;;;7.70;99.90;;;;;;4996084;28;20247;-63
2022/02/28 09:14:05;;;;;;;16.27;12.80;;;7.70;99.90;;;;;;5012575;28;20675;-63
2022/02/28 09:16:33;;;;;;;17.23;12.70;;;7.80;99.90;;;;;;5015151;28;20705;-63
2022/02/28 09:19:02;;;;;;;17.17;13.93;;;8.10;99.90;;;;;;5017490;28;20237;-63
2022/02/28 09:21:30;;;;;;;17.47;13.50;;;8.20;99.90;;;;;;5047090;28;20240;-63
2022/02/28 09:23:58;;;;;;;17.83;13.60;;;8.30;99.90;;;;;;5020747;28;20253;-63
2022/02/28 09:26:28;;;;;;;16.90;12.87;;;8.50;99.90;;;;;;5028846;28;20245;-63
2022/02/28 09:28:56;;;;;;;15.70;12.83;;;8.50;99.90;;;;;;5024182;28;20268;-63
2022/02/28 09:31:24;;;;;;;16.40;12.67;;;8.50;99.90;;;;;;5029049;28;20757;-63
2022/02/28 09:33:53;;;;;;;17.43;13.57;;;8.40;99.90;;;;;;5023666;28;20265;-63
2022/02/28 09:36:22;;;;;;;19.47;13.20;;;8.40;99.90;;;;;;5028836;28;20239;-63
2022/02/28 09:38:50;;;;;;;15.63;12.83;;;8.60;99.90;;;;;;5020324;28;20636;-63
2022/02/28 09:41:47;;;;;;;17.53;13.67;;;8.70;99.90;;;;;;5014670;28;20672;-63
2022/02/28 09:44:35;;;;;;;15.47;13.13;;;8.80;99.90;;;;;;5032523;28;20317;-62
2022/02/28 09:47:22;;;;;;;17.27;13.00;;;8.90;99.90;;;;;;5021603;28;20243;-63
2022/02/28 09:50:20;;;;;;;18.47;13.83;;;9.00;99.90;;;;;;4980306;28;20244;-63
2022/02/28 09:53:07;;;;;;;16.87;12.57;;;9.00;99.90;;;;;;5023079;28;20240;-63
2022/02/28 09:55:51;;;;;;;16.83;13.67;;;9.00;99.90;;;;;;5017806;28;20236;-63
2022/02/28 09:58:41;;;;;;;17.57;13.23;;;9.20;99.90;;;;;;5020616;28;20230;-62
2022/02/28 10:01:14;;;;;;;16.03;12.80;;;9.30;99.90;;;;;;5021835;28;20244;-63
2022/02/28 10:03:48;;;;;;;17.60;13.17;;;9.50;99.90;;;;;;5023468;28;20716;-63
2022/02/28 10:06:16;;;;;;;17.83;13.33;;;9.50;99.90;;;;;;5027113;28;20242;-62
2022/02/28 10:08:46;;;;;;;16.40;13.40;;;9.40;99.90;;;;;;5023447;28;20234;-63
2022/02/28 10:11:26;;;;;;;18.57;12.97;;;9.50;99.90;;;;;;5028267;28;20236;-63
2022/02/28 10:13:57;;;;;;;16.70;12.97;;;9.60;99.90;;;;;;5004833;28;20268;-63
2022/02/28 10:16:34;;;;;;;18.23;13.43;;;9.80;99.90;;;;;;5009616;28;20264;-63
2022/02/28 10:19:04;;;;;;;18.37;13.87;;;9.90;99.90;;;;;;5036493;28;20232;-63
2022/02/28 10:21:42;;;;;;;17.93;12.83;;;10.00;99.90;;;;;;5034454;28;20239;-63
2022/02/28 10:24:13;;;;;;;16.67;12.27;;;10.10;99.90;;;;;;5034576;28;20236;-63
2022/02/28 10:27:18;;;;;;;15.10;12.40;;;10.20;99.90;;;;;;5017479;28;20240;-63
2022/02/28 10:30:11;;;;;;;16.30;12.30;;;10.30;99.90;;;;;;5009507;28;20694;-62
2022/02/28 10:32:58;;;;;;;17.43;12.23;;;10.30;99.90;;;;;;5014553;28;20240;-63
2022/02/28 10:38:35;;;;;;;16.57;12.87;;;10.20;99.90;;;;;;5005510;28;20230;-62
2022/02/28 10:41:05;;;;;;;16.00;12.47;;;10.20;99.90;;;;;;5011425;28;20242;-63
2022/02/28 10:43:37;;;;;;;15.27;11.93;;;10.50;99.90;;;;;;5010451;28;20697;-63
2022/02/28 10:46:16;;;;;;;14.83;12.77;;;10.80;99.90;;;;;;5010929;28;20242;-63
2022/02/28 10:49:08;;;;;;;15.37;12.67;;;10.90;99.90;;;;;;5007781;28;20244;-63
2022/02/28 10:51:48;;;;;;;14.80;12.20;;;11.20;99.90;;;;;;4994740;28;20237;-63
2022/02/28 10:54:20;;;;;;;16.10;12.80;;;11.20;99.90;;;;;;5027036;28;20233;-63
2022/02/28 10:56:52;;;;;;;17.47;12.70;;;11.20;99.90;;;;;;5010771;28;20238;-63
2022/02/28 10:59:25;;;;;;;16.50;12.07;;;11.10;99.90;;;;;;5010825;28;20264;-63
2022/02/28 11:01:55;;;;;;;12.87;10.67;;;11.30;99.90;;;;;;5010557;28;20266;-63
2022/02/28 11:04:31;;;;;;;12.80;10.57;;;11.30;99.90;;;;;;5010909;28;20233;-63
2022/02/28 11:07:00;;;;;;;13.17;11.03;;;11.40;99.90;;;;;;5012971;28;20242;-62
2022/02/28 11:09:34;;;;;;;13.57;11.00;;;11.40;99.90;;;;;;5016613;28;20238;-63
2022/02/28 11:12:36;;;;;;;12.87;10.87;;;11.50;99.90;;;;;;5010828;28;20698;-63
2022/02/28 11:15:07;;;;;;;12.17;10.87;;;11.50;99.90;;;;;;5005899;28;20230;-63
2022/02/28 11:17:39;;;;;;;12.73;11.00;;;11.50;99.90;;;;;;5009885;28;20235;-62
2022/02/28 11:20:11;;;;;;;12.70;10.80;;;11.50;99.90;;;;;;5010238;28;20243;-63
2022/02/28 11:22:41;;;;;;;12.70;11.00;;;11.60;99.90;;;;;;5010566;28;20240;-63
2022/02/28 11:25:11;;;;;;;12.40;10.17;;;11.50;99.90;;;;;;5015572;28;20300;-63
2022/02/28 11:27:43;;;;;;;17.00;11.43;;;11.70;99.90;;;;;;5005077;28;20273;-63
2022/02/28 11:30:13;;;;;;;13.20;10.10;;;11.80;99.90;;;;;;5026746;28;20261;-63
2022/02/28 11:32:43;;;;;;;13.23;10.70;;;11.90;99.90;;;;;;5013677;28;20273;-63
2022/02/28 11:35:39;;;;;;;12.27;10.53;;;12.00;99.90;;;;;;5010355;28;20240;-63
2022/02/28 11:38:12;;;;;;;13.30;10.80;;;12.20;99.90;;;;;;5028165;28;20602;-63
2022/02/28 11:40:41;;;;;;;13.87;10.53;;;12.20;99.90;;;;;;5020650;28;20267;-63
2022/02/28 11:43:12;;;;;;;12.30;10.27;;;12.40;99.90;;;;;;5019866;28;20314;-63
2022/02/28 11:45:51;;;;;;;12.50;10.27;;;12.30;99.90;;;;;;5026856;28;20790;-63
2022/02/28 11:48:34;;;;;;;13.03;10.47;;;12.40;99.90;;;;;;5041978;28;20702;-63
2022/02/28 11:51:04;;;;;;;11.30;10.10;;;12.30;99.90;;;;;;5045509;28;20641;-63
2022/02/28 11:53:51;;;;;;;11.80;9.57;;;12.40;99.90;;;;;;5039256;28;20242;-63
2022/02/28 11:56:56;;;;;;;12.17;10.20;;;12.20;99.90;;;;;;5046797;28;20230;-63
2022/02/28 11:59:29;;;;;;;12.30;9.83;;;12.20;99.90;;;;;;5020479;28;20619;-63
2022/02/28 12:02:06;;;;;;;11.93;10.23;;;12.20;99.90;;;;;;5025658;28;20700;-62
2022/02/28 12:04:44;;;;;;;11.70;10.00;;;12.10;99.90;;;;;;5030515;28;20670;-63
2022/02/28 12:07:31;;;;;;;11.23;9.57;;;12.10;99.90;;;;;;5016214;28;20611;-63
2022/02/28 12:10:05;;;;;;;11.57;10.10;;;12.00;99.90;;;;;;5021885;28;20253;-63
2022/02/28 12:12:34;;;;;;;12.50;9.87;;;11.80;99.90;;;;;;5012464;28;20280;-62
2022/02/28 12:15:22;;;;;;;13.37;9.77;;;11.90;99.90;;;;;;5013861;28;20561;-62
2022/02/28 12:18:04;;;;;;;12.37;9.70;;;11.80;99.90;;;;;;5019554;28;20255;-62
2022/02/28 12:20:38;;;;;;;11.17;9.13;;;11.70;99.90;;;;;;5041636;28;20649;-62
2022/02/28 12:23:15;;;;;;;14.13;10.00;;;11.60;99.90;;;;;;5022384;28;20323;-62
2022/02/28 12:25:45;;;;;;;12.93;10.30;;;11.60;99.90;;;;;;5018513;28;20250;-62
2022/02/28 12:28:24;;;;;;;12.43;9.33;;;11.60;99.90;;;;;;5028907;28;20317;-62
2022/02/28 12:30:55;;;;;;;12.57;9.73;;;11.50;99.90;;;;;;5007516;28;20262;-62
2022/02/28 12:33:56;;;;;;;13.10;9.67;;;11.30;99.90;;;;;;5016176;28;20260;-62
2022/02/28 12:36:29;;;;;;;10.33;8.97;;;11.20;99.90;;;;;;5030970;28;20241;-62
2022/02/28 12:39:00;;;;;;;13.17;9.50;;;11.40;99.90;;;;;;5026909;28;20239;-63
2022/02/28 12:41:29;;;;;;;11.43;9.70;;;11.60;99.90;;;;;;5028404;28;20238;-62
2022/02/28 12:43:59;;;;;;;11.57;9.63;;;11.60;99.90;;;;;;5007904;28;20297;-62
2022/02/28 12:46:29;;;;;;;11.40;10.07;;;11.80;99.90;;;;;;5014315;28;20241;-63
2022/02/28 12:48:58;;;;;;;12.80;9.27;;;11.60;99.90;;;;;;5026647;28;20723;-62
2022/02/28 12:51:31;;;;;;;12.27;10.57;;;11.70;99.90;;;;;;5029587;28;20230;-62
2022/02/28 12:54:05;;;;;;;12.60;9.80;;;11.70;99.90;;;;;;5005194;28;20445;-62
2022/02/28 12:56:40;;;;;;;11.50;9.27;;;11.70;99.90;;;;;;5008736;28;20786;-63
2022/02/28 12:59:08;;;;;;;13.17;9.47;;;11.60;99.90;;;;;;5019971;28;20350;-62
2022/02/28 13:01:36;;;;;;;11.87;9.53;;;11.50;99.90;;;;;;5012613;28;20247;-62
2022/02/28 13:04:06;;;;;;;11.87;9.90;;;11.40;99.90;;;;;;5030454;28;20649;-62